Indian Valley, VA (24105)

5:31 PM EDT on April 29, 2017 (GMT -0400)
Blue Ridge Mountains | | Change Station

Elev 2782 ft 36.88 °N, 80.50 °W | Updated 7 minutes ago

Partly Cloudy
Partly Cloudy
76.9 °F
Feels Like 79 °F
N
7.0
Wind Variable Wind from SSW
Gusts 11.0 mph

Today
High -- | Low -- °F
--% Chance of Precip.
Yesterday
High -- | Low -- °F
Precip. -- in
Pressure 30.16 in
Visibility 10.0 miles
Clouds Clear
Heat Index 79 °F
Dew Point 66 °F
Humidity 69%
Rainfall 0.00 in
Snow Depth Not available.
6:30 AM 8:09 PM
Waxing Crescent, 16% visible
METAR KPSK 292115Z AUTO 19009KT 10SM CLR 27/16 A3016 RMK AO2 LTG DSNT W AND NW T02710160
Pressure 30.16 in
Visibility 10.0 miles
Clouds Clear
Heat Index 79 °F
Dew Point 66 °F
Humidity 69%
Rainfall 0.00 in
Snow Depth Not available.
6:30 AM 8:09 PM
Waxing Crescent, 16% visible
METAR KPSK 292115Z AUTO 19009KT 10SM CLR 27/16 A3016 RMK AO2 LTG DSNT W AND NW T02710160

Get Severe Weather Alerts

Thanks for signing up!

Be on the lookout for a verification email in your inbox.

You'll start receiving the daily forecast at 8 AM.

×

10-Day Weather Forecast

Almanac

Astronomy

Apr. 29, 2017 Rise Set
Actual Time
Civil Twilight
Nautical Twilight
Astronomical Twilight
Moon
Length of Visible Light
Length of Day
Tomorrow will be .
, % of the Moon is Illuminated

Today's Extremes

State Highs State Lows

Community

WunderPhotos

WunderBlog® & News

Nearby

Air Quality

  Air Quality AQ Index Pollutant
Not available.

Snow Depth

Station Depth Elevation

Earthquake Activity

City Distance Mag. Time & Date
Minimum magnitude displayed is 2.5.

Coastal Water Temperatures

Place Temperature

Stations

Nearby Weather Stations

Station Location Temp. Windchill Dew Point Humidity Wind Precip. Elev Updated Type
                   

Watches & Warnings

There are currently no watches in effect.